createdAt,value
2017-08-06T00:00:14.697Z,0
2017-08-06T00:01:15.408Z,0
2017-08-06T00:02:15.712Z,0
2017-08-06T00:03:15.466Z,0
2017-08-06T00:04:15.171Z,0
2017-08-06T00:05:15.562Z,0
2017-08-06T00:06:15.568Z,0
2017-08-06T00:07:15.295Z,0
2017-08-06T00:08:15.952Z,0
2017-08-06T00:09:15.642Z,0
2017-08-06T00:10:15.715Z,0
2017-08-06T00:11:16.108Z,0
2017-08-06T00:12:15.878Z,0
2017-08-06T00:13:15.966Z,0
2017-08-06T00:14:15.800Z,0
2017-08-06T00:15:16.703Z,0
2017-08-06T00:16:16.157Z,0
2017-08-06T00:17:16.866Z,0
2017-08-06T00:18:16.875Z,0
2017-08-06T00:19:16.891Z,0
2017-08-06T00:20:16.688Z,0
2017-08-06T00:21:16.956Z,0
2017-08-06T00:22:17.012Z,0
2017-08-06T00:23:17.033Z,0
2017-08-06T00:24:16.815Z,0
2017-08-06T00:25:17.092Z,0
2017-08-06T00:26:17.486Z,0
2017-08-06T00:27:16.830Z,0
2017-08-06T00:28:17.492Z,0
2017-08-06T00:29:17.557Z,0
2017-08-06T00:30:17.556Z,0
2017-08-06T00:31:17.937Z,0
2017-08-06T00:32:17.973Z,0
2017-08-06T00:33:18.007Z,0
2017-08-06T00:34:18.000Z,0
2017-08-06T00:35:18.027Z,0
2017-08-06T00:36:18.066Z,0
2017-08-06T00:37:18.156Z,0
2017-08-06T00:38:17.548Z,0
2017-08-06T00:39:18.227Z,0
2017-08-06T00:40:18.297Z,0
2017-08-06T00:41:18.293Z,0
2017-08-06T00:42:18.047Z,0
2017-08-06T00:43:18.397Z,0
2017-08-06T00:44:18.101Z,0
2017-08-06T00:45:17.869Z,0
2017-08-06T00:46:18.853Z,0
2017-08-06T00:47:18.545Z,0
2017-08-06T00:48:19.233Z,0
2017-08-06T00:49:19.570Z,0
2017-08-06T00:50:19.269Z,0
2017-08-06T00:51:19.604Z,0
2017-08-06T00:52:19.705Z,0
2017-08-06T00:53:19.393Z,0
2017-08-06T00:54:19.727Z,0
2017-08-06T00:55:19.844Z,0
2017-08-06T00:56:19.490Z,0
2017-08-06T00:57:19.569Z,0
2017-08-06T00:58:20.701Z,0
2017-08-06T00:59:19.880Z,0
2017-08-06T01:00:19.938Z,0
2017-08-06T01:01:19.672Z,0
2017-08-06T01:02:20.037Z,0
2017-08-06T01:03:20.016Z,0
2017-08-06T01:04:20.065Z,0
2017-08-06T01:05:20.113Z,0
2017-08-06T01:06:19.837Z,0
2017-08-06T01:07:20.503Z,0
2017-08-06T01:08:20.206Z,0
2017-08-06T01:09:20.280Z,0
2017-08-06T01:10:20.334Z,0
2017-08-06T01:11:21.010Z,0
2017-08-06T01:12:20.704Z,0
2017-08-06T01:13:21.053Z,0
2017-08-06T01:14:20.830Z,0
2017-08-06T01:15:20.907Z,0
2017-08-06T01:16:20.587Z,0
2017-08-06T01:17:21.628Z,0
2017-08-06T01:18:21.607Z,0
2017-08-06T01:19:21.332Z,0
2017-08-06T01:20:21.657Z,0
2017-08-06T01:21:21.692Z,0
2017-08-06T01:22:21.455Z,0
2017-08-06T01:23:21.447Z,0
2017-08-06T01:24:21.512Z,0
2017-08-06T01:25:21.853Z,0
2017-08-06T01:26:21.268Z,0
2017-08-06T01:27:21.960Z,0
2017-08-06T01:28:21.663Z,0
2017-08-06T01:29:22.382Z,0
2017-08-06T01:30:22.080Z,0
2017-08-06T01:31:21.779Z,0
2017-08-06T01:32:22.427Z,0
2017-08-06T01:33:22.828Z,0
2017-08-06T01:34:22.486Z,0
2017-08-06T01:35:22.223Z,0
2017-08-06T01:36:22.885Z,0
2017-08-06T01:37:23.224Z,0
2017-08-06T01:38:22.654Z,0
2017-08-06T01:39:23.316Z,0
2017-08-06T01:40:23.662Z,0
2017-08-06T01:41:24.006Z,0
2017-08-06T01:42:23.744Z,0
2017-08-06T01:43:24.399Z,0
2017-08-06T01:44:23.845Z,0
2017-08-06T01:45:24.791Z,0
2017-08-06T01:46:24.553Z,0
2017-08-06T01:47:24.663Z,0
2017-08-06T01:48:24.691Z,0
2017-08-06T01:49:24.758Z,0
2017-08-06T01:50:24.799Z,0
2017-08-06T01:51:24.836Z,0
2017-08-06T01:52:25.195Z,0
2017-08-06T01:53:24.872Z,0
2017-08-06T01:54:25.241Z,0
2017-08-06T01:55:25.298Z,0
2017-08-06T01:56:25.967Z,0
2017-08-06T01:57:25.999Z,0
2017-08-06T01:58:26.027Z,0
2017-08-06T01:59:26.061Z,0
2017-08-06T02:00:26.125Z,0
2017-08-06T02:01:26.164Z,0
2017-08-06T02:02:26.212Z,0
2017-08-06T02:03:26.282Z,0
2017-08-06T02:04:26.244Z,0
2017-08-06T02:05:25.958Z,0
2017-08-06T02:06:25.355Z,0
2017-08-06T02:07:26.335Z,0
2017-08-06T02:08:26.418Z,0
2017-08-06T02:09:26.407Z,0
2017-08-06T02:10:25.846Z,0
2017-08-06T02:11:26.464Z,0
2017-08-06T02:12:26.216Z,0
2017-08-06T02:13:26.235Z,0
2017-08-06T02:14:26.280Z,0
2017-08-06T02:15:26.282Z,0
2017-08-06T02:16:26.353Z,0
2017-08-06T02:17:26.380Z,0
2017-08-06T02:18:26.702Z,0
2017-08-06T02:19:26.423Z,0
2017-08-06T02:20:26.514Z,0
2017-08-06T02:21:26.825Z,0
2017-08-06T02:22:26.516Z,0
2017-08-06T02:23:26.886Z,0
2017-08-06T02:24:26.985Z,0
2017-08-06T02:25:26.328Z,0
2017-08-06T02:26:27.018Z,0
2017-08-06T02:27:27.017Z,0
2017-08-06T02:28:27.685Z,0
2017-08-06T02:29:27.744Z,0
2017-08-06T02:30:27.776Z,0
2017-08-06T02:31:27.493Z,0
2017-08-06T02:32:27.859Z,0
2017-08-06T02:33:27.889Z,0
2017-08-06T02:34:27.628Z,0
2017-08-06T02:35:27.956Z,0
2017-08-06T02:36:27.991Z,0
2017-08-06T02:37:27.724Z,0
2017-08-06T02:38:27.756Z,0
2017-08-06T02:39:28.086Z,0
2017-08-06T02:40:28.124Z,0
2017-08-06T02:41:28.157Z,0
2017-08-06T02:42:27.851Z,0
2017-08-06T02:43:28.231Z,0
2017-08-06T02:44:28.239Z,0
2017-08-06T02:45:27.945Z,0
2017-08-06T02:46:28.048Z,0
2017-08-06T02:47:28.431Z,0
2017-08-06T02:48:28.474Z,0
2017-08-06T02:49:28.538Z,0
2017-08-06T02:50:28.530Z,0
2017-08-06T02:51:28.869Z,0
2017-08-06T02:52:28.907Z,0
2017-08-06T02:53:28.731Z,0
2017-08-06T02:54:29.066Z,0
2017-08-06T02:55:29.317Z,0
2017-08-06T02:56:28.719Z,0
2017-08-06T02:57:28.442Z,0
2017-08-06T02:58:29.081Z,4
2017-08-06T02:59:29.204Z,4
2017-08-06T03:00:29.201Z,0
2017-08-06T03:01:29.673Z,4
2017-08-06T03:02:29.730Z,4
2017-08-06T03:03:30.050Z,0
2017-08-06T03:04:30.087Z,4
2017-08-06T03:05:29.487Z,8
2017-08-06T03:06:30.158Z,4
2017-08-06T03:07:30.273Z,4
2017-08-06T03:08:30.384Z,8
2017-08-06T03:09:30.658Z,8
2017-08-06T03:10:30.418Z,8
2017-08-06T03:11:30.458Z,12
2017-08-06T03:12:30.451Z,12
2017-08-06T03:13:30.792Z,16
2017-08-06T03:14:30.851Z,12
2017-08-06T03:15:31.647Z,16
2017-08-06T03:16:31.698Z,16
2017-08-06T03:17:31.381Z,24
2017-08-06T03:18:31.764Z,28
2017-08-06T03:19:31.780Z,28
2017-08-06T03:20:31.509Z,36
2017-08-06T03:21:31.829Z,36
2017-08-06T03:22:31.880Z,40
2017-08-06T03:23:31.586Z,44
2017-08-06T03:24:31.923Z,52
2017-08-06T03:25:31.630Z,56
2017-08-06T03:26:31.705Z,64
2017-08-06T03:27:32.053Z,68
2017-08-06T03:28:31.809Z,76
2017-08-06T03:29:32.082Z,84
2017-08-06T03:30:32.437Z,92
2017-08-06T03:31:32.452Z,100
2017-08-06T03:32:32.519Z,108
2017-08-06T03:33:32.235Z,120
2017-08-06T03:34:32.925Z,128
2017-08-06T03:35:32.927Z,136
2017-08-06T03:36:32.953Z,144
2017-08-06T03:37:32.408Z,152
2017-08-06T03:38:33.159Z,164
2017-08-06T03:39:32.860Z,184
2017-08-06T03:40:32.578Z,200
2017-08-06T03:41:33.560Z,216
2017-08-06T03:42:33.560Z,232
2017-08-06T03:43:33.631Z,248
2017-08-06T03:44:33.622Z,260
2017-08-06T03:45:33.047Z,280
2017-08-06T03:46:33.735Z,304
2017-08-06T03:47:34.091Z,320
2017-08-06T03:48:34.084Z,344
2017-08-06T03:49:33.849Z,364
2017-08-06T03:50:34.493Z,376
2017-08-06T03:51:34.554Z,400
2017-08-06T03:52:34.593Z,404
2017-08-06T03:53:34.584Z,400
2017-08-06T03:54:34.342Z,392
2017-08-06T03:55:34.355Z,368
2017-08-06T03:56:34.386Z,400
2017-08-06T03:57:34.829Z,456
2017-08-06T03:58:34.796Z,508
2017-08-06T03:59:35.163Z,548
2017-08-06T04:00:35.165Z,584
2017-08-06T04:01:35.098Z,612
2017-08-06T04:02:35.257Z,640
2017-08-06T04:03:34.957Z,664
2017-08-06T04:04:35.254Z,688
2017-08-06T04:05:35.701Z,712
2017-08-06T04:06:35.709Z,736
2017-08-06T04:07:36.035Z,756
2017-08-06T04:08:35.724Z,824
2017-08-06T04:09:35.459Z,832
2017-08-06T04:10:36.148Z,872
2017-08-06T04:11:35.545Z,904
2017-08-06T04:12:35.936Z,972
2017-08-06T04:13:36.585Z,984
2017-08-06T04:14:36.602Z,996
2017-08-06T04:15:36.658Z,1040
2017-08-06T04:16:36.385Z,1092
2017-08-06T04:17:36.746Z,1116
2017-08-06T04:18:36.428Z,1160
2017-08-06T04:19:37.134Z,1156
2017-08-06T04:20:36.888Z,1188
2017-08-06T04:21:37.233Z,1228
2017-08-06T04:22:36.965Z,1252
2017-08-06T04:23:37.269Z,1252
2017-08-06T04:24:36.968Z,1248
2017-08-06T04:25:37.328Z,1276
2017-08-06T04:26:37.074Z,1284
2017-08-06T04:27:36.510Z,1316
2017-08-06T04:28:37.527Z,1376
2017-08-06T04:29:37.276Z,1372
2017-08-06T04:30:37.285Z,1396
2017-08-06T04:31:37.303Z,1420
2017-08-06T04:32:37.623Z,1452
2017-08-06T04:33:37.398Z,1440
2017-08-06T04:34:37.698Z,1472
2017-08-06T04:35:37.421Z,1508
2017-08-06T04:36:37.806Z,1540
2017-08-06T04:37:37.462Z,1544
2017-08-06T04:38:37.543Z,1580
2017-08-06T04:39:37.559Z,1640
2017-08-06T04:40:37.903Z,1640
2017-08-06T04:41:37.956Z,1668
2017-08-06T04:42:37.324Z,1676
2017-08-06T04:43:38.311Z,1684
2017-08-06T04:44:38.367Z,1668
2017-08-06T04:45:38.105Z,1696
2017-08-06T04:46:38.102Z,1716
2017-08-06T04:47:38.762Z,1756
2017-08-06T04:48:38.522Z,1792
2017-08-06T04:49:38.543Z,1836
2017-08-06T04:50:38.586Z,1816
2017-08-06T04:51:38.963Z,1864
2017-08-06T04:52:38.397Z,1868
2017-08-06T04:53:38.694Z,1880
2017-08-06T04:54:39.053Z,1952
2017-08-06T04:55:38.799Z,1972
2017-08-06T04:56:38.795Z,1976
2017-08-06T04:57:40.099Z,1976
2017-08-06T04:58:40.329Z,1988
2017-08-06T04:59:39.199Z,2020
2017-08-06T05:00:39.235Z,2040
2017-08-06T05:01:39.451Z,2052
2017-08-06T05:02:39.275Z,2076
2017-08-06T05:03:39.329Z,2044
2017-08-06T05:04:39.361Z,2100
2017-08-06T05:05:39.404Z,2124
2017-08-06T05:06:39.102Z,2100
2017-08-06T05:07:39.789Z,2164
2017-08-06T05:08:39.798Z,2160
2017-08-06T05:09:39.800Z,2200
2017-08-06T05:10:39.840Z,2216
2017-08-06T05:11:39.896Z,2196
2017-08-06T05:12:39.937Z,2252
2017-08-06T05:13:39.942Z,2284
2017-08-06T05:14:39.965Z,2196
2017-08-06T05:15:40.033Z,2248
2017-08-06T05:16:40.044Z,2268
2017-08-06T05:17:40.100Z,2268
2017-08-06T05:18:40.121Z,2316
2017-08-06T05:19:39.264Z,2388
2017-08-06T05:20:39.592Z,2428
2017-08-06T05:21:39.941Z,2524
2017-08-06T05:22:40.030Z,2696
2017-08-06T05:23:40.369Z,2900
2017-08-06T05:24:40.069Z,2940
2017-08-06T05:25:40.459Z,3140
2017-08-06T05:26:40.507Z,3136
2017-08-06T05:27:39.926Z,3368
2017-08-06T05:28:40.573Z,3492
2017-08-06T05:29:40.348Z,4080
2017-08-06T05:30:40.378Z,4180
2017-08-06T05:31:40.736Z,4556
2017-08-06T05:32:40.800Z,4216
2017-08-06T05:33:40.780Z,3776
2017-08-06T05:34:40.820Z,3948
2017-08-06T05:35:40.873Z,4240
2017-08-06T05:36:41.205Z,3872
2017-08-06T05:37:41.246Z,3308
2017-08-06T05:38:41.310Z,3316
2017-08-06T05:39:41.305Z,3280
2017-08-06T05:40:41.339Z,3252
2017-08-06T05:41:41.072Z,3236
2017-08-06T05:42:41.115Z,3224
2017-08-06T05:43:40.844Z,3472
2017-08-06T05:44:41.608Z,3748
2017-08-06T05:45:41.870Z,3880
2017-08-06T05:46:41.945Z,3496
2017-08-06T05:47:41.658Z,3628
2017-08-06T05:48:41.695Z,3368
2017-08-06T05:49:41.744Z,3672
2017-08-06T05:50:42.153Z,3856
2017-08-06T05:51:42.200Z,3976
2017-08-06T05:52:42.517Z,3652
2017-08-06T05:53:42.605Z,3384
2017-08-06T05:54:42.281Z,3540
2017-08-06T05:55:42.665Z,3948
2017-08-06T05:56:42.674Z,4360
2017-08-06T05:57:42.708Z,6108
2017-08-06T05:58:42.742Z,3340
2017-08-06T05:59:42.775Z,3532
2017-08-06T06:00:42.837Z,4776
2017-08-06T06:01:42.863Z,5748
2017-08-06T06:02:42.603Z,7096
2017-08-06T06:03:42.976Z,9452
2017-08-06T06:04:43.077Z,5008
2017-08-06T06:05:43.476Z,4196
2017-08-06T06:06:43.212Z,5384
2017-08-06T06:07:43.550Z,5104
2017-08-06T06:08:43.335Z,5760
2017-08-06T06:09:44.000Z,8016
2017-08-06T06:10:43.707Z,12192
2017-08-06T06:11:44.069Z,13348
2017-08-06T06:12:44.106Z,15968
2017-08-06T06:13:43.878Z,25248
2017-08-06T06:14:43.979Z,23264
2017-08-06T06:15:44.576Z,30976
2017-08-06T06:16:44.653Z,27136
2017-08-06T06:17:44.664Z,22944
2017-08-06T06:18:44.103Z,16608
2017-08-06T06:19:44.163Z,11896
2017-08-06T06:20:45.172Z,10716
2017-08-06T06:21:44.903Z,10524
2017-08-06T06:22:45.269Z,10456
2017-08-06T06:23:45.242Z,10448
2017-08-06T06:24:45.317Z,10752
2017-08-06T06:25:45.016Z,10628
2017-08-06T06:26:45.396Z,4004
2017-08-06T06:27:45.096Z,9912
2017-08-06T06:28:45.458Z,10900
2017-08-06T06:29:45.771Z,10952
2017-08-06T06:30:45.863Z,7452
2017-08-06T06:31:45.591Z,10216
2017-08-06T06:32:45.679Z,10568
2017-08-06T06:33:46.356Z,11004
2017-08-06T06:34:47.024Z,4832
2017-08-06T06:35:47.045Z,10836
2017-08-06T06:36:47.104Z,10360
2017-08-06T06:37:46.855Z,9740
2017-08-06T06:38:47.173Z,10476
2017-08-06T06:39:47.263Z,10260
2017-08-06T06:40:46.670Z,9644
2017-08-06T06:41:47.037Z,9372
2017-08-06T06:42:47.717Z,9152
2017-08-06T06:43:47.764Z,9416
2017-08-06T06:44:48.142Z,9484
2017-08-06T06:45:48.181Z,10140
2017-08-06T06:46:48.545Z,9800
2017-08-06T06:47:48.568Z,9540
2017-08-06T06:48:48.625Z,9344
2017-08-06T06:49:48.647Z,9276
2017-08-06T06:50:48.695Z,9296
2017-08-06T06:51:48.804Z,9376
2017-08-06T06:52:48.778Z,9772
2017-08-06T06:53:48.807Z,10236
2017-08-06T06:54:48.898Z,9040
2017-08-06T06:55:48.914Z,9596
2017-08-06T06:56:48.680Z,9028
2017-08-06T06:57:49.039Z,9036
2017-08-06T06:58:49.076Z,9276
2017-08-06T06:59:49.818Z,9812
2017-08-06T07:00:49.862Z,5372
2017-08-06T07:01:49.946Z,8980
2017-08-06T07:02:49.937Z,9036
2017-08-06T07:03:49.360Z,9112
2017-08-06T07:04:50.393Z,9296
2017-08-06T07:05:50.708Z,9660
2017-08-06T07:06:50.813Z,10908
2017-08-06T07:07:50.748Z,4632
2017-08-06T07:08:50.807Z,10132
2017-08-06T07:09:50.850Z,9192
2017-08-06T07:10:50.907Z,9076
2017-08-06T07:11:51.265Z,8968
2017-08-06T07:12:51.278Z,8772
2017-08-06T07:13:51.030Z,8668
2017-08-06T07:14:51.071Z,8700
2017-08-06T07:15:52.071Z,8572
2017-08-06T07:16:52.108Z,8772
2017-08-06T07:17:51.871Z,9464
2017-08-06T07:18:51.850Z,8872
2017-08-06T07:19:52.227Z,8696
2017-08-06T07:20:51.945Z,8584
2017-08-06T07:21:51.953Z,8560
2017-08-06T07:22:52.359Z,8764
2017-08-06T07:23:52.408Z,9612
2017-08-06T07:24:52.459Z,9084
2017-08-06T07:25:52.173Z,8696
2017-08-06T07:26:52.890Z,8736
2017-08-06T07:27:52.906Z,9200
2017-08-06T07:28:52.363Z,9120
2017-08-06T07:29:53.117Z,9836
2017-08-06T07:30:53.123Z,9624
2017-08-06T07:31:53.421Z,9004
2017-08-06T07:32:52.848Z,9960
2017-08-06T07:33:53.229Z,9816
2017-08-06T07:34:53.935Z,10164
2017-08-06T07:35:53.947Z,11464
2017-08-06T07:36:53.978Z,12052
2017-08-06T07:37:53.709Z,12632
2017-08-06T07:38:54.075Z,14376
2017-08-06T07:39:54.081Z,17888
2017-08-06T07:40:54.150Z,21696
2017-08-06T07:41:53.580Z,23488
2017-08-06T07:42:53.948Z,26688
2017-08-06T07:43:54.315Z,35136
2017-08-06T07:44:54.345Z,44224
2017-08-06T07:45:54.081Z,53248
2017-08-06T07:46:54.517Z,59520
2017-08-06T07:47:54.826Z,60672
2017-08-06T07:48:54.550Z,55296
2017-08-06T07:49:54.928Z,55072
2017-08-06T07:50:54.953Z,58080
2017-08-06T07:51:54.705Z,60032
2017-08-06T07:52:55.020Z,31520
2017-08-06T07:53:54.818Z,64544
2017-08-06T07:54:54.821Z,65312
2017-08-06T07:55:55.155Z,62592
2017-08-06T07:56:55.248Z,59936
2017-08-06T07:57:55.256Z,57088
2017-08-06T07:58:54.981Z,52800
2017-08-06T07:59:54.753Z,52544
2017-08-06T08:00:55.479Z,54688
2017-08-06T08:01:55.673Z,53056
2017-08-06T08:02:55.874Z,51040
2017-08-06T08:03:55.891Z,51648
2017-08-06T08:04:55.947Z,47904
2017-08-06T08:05:55.698Z,53792
2017-08-06T08:06:55.719Z,53536
2017-08-06T08:07:55.454Z,54912
2017-08-06T08:08:56.091Z,52640
2017-08-06T08:09:56.149Z,50080
2017-08-06T08:10:56.204Z,9972
2017-08-06T08:11:56.248Z,52000
2017-08-06T08:12:55.982Z,4708
2017-08-06T08:13:55.723Z,4816
2017-08-06T08:14:56.443Z,51712
2017-08-06T08:15:56.456Z,51872
2017-08-06T08:16:56.210Z,50464
2017-08-06T08:17:56.528Z,49536
2017-08-06T08:18:56.324Z,47648
2017-08-06T08:19:56.711Z,45664
2017-08-06T08:20:57.071Z,46560
2017-08-06T08:21:57.117Z,44960
2017-08-06T08:22:56.874Z,41920
2017-08-06T08:23:57.237Z,42912
2017-08-06T08:24:56.947Z,48096
2017-08-06T08:25:57.315Z,49792
2017-08-06T08:26:57.344Z,49792
2017-08-06T08:27:57.727Z,48192
2017-08-06T08:28:57.484Z,44896
2017-08-06T08:29:57.887Z,44832
2017-08-06T08:30:56.982Z,45760
2017-08-06T08:31:57.949Z,47392
2017-08-06T08:32:57.426Z,48032
2017-08-06T08:33:58.416Z,15840
2017-08-06T08:34:57.862Z,6380
2017-08-06T08:35:58.479Z,54912
2017-08-06T08:36:58.530Z,6696
2017-08-06T08:37:58.949Z,20832
2017-08-06T08:38:58.950Z,55712
2017-08-06T08:39:59.020Z,51744
2017-08-06T08:40:58.416Z,50880
2017-08-06T08:41:59.181Z,46272
2017-08-06T08:42:58.821Z,34688
2017-08-06T08:43:59.224Z,27584
2017-08-06T08:44:59.245Z,20544
2017-08-06T08:45:59.278Z,28160
2017-08-06T08:46:59.285Z,34688
2017-08-06T08:47:59.685Z,33504
2017-08-06T08:48:59.431Z,17920
2017-08-06T08:49:59.469Z,5596
2017-08-06T08:51:00.130Z,7172
2017-08-06T08:52:00.818Z,19008
2017-08-06T08:53:00.819Z,12868
2017-08-06T08:54:00.631Z,9296
2017-08-06T08:55:00.951Z,9492
2017-08-06T08:56:01.024Z,18496
2017-08-06T08:57:00.753Z,6568
2017-08-06T08:58:01.172Z,6348
2017-08-06T08:59:01.975Z,11304
2017-08-06T09:00:01.179Z,4908
2017-08-06T09:01:01.218Z,14496
2017-08-06T09:02:01.519Z,15008
2017-08-06T09:03:01.312Z,17056
2017-08-06T09:04:01.022Z,6256
2017-08-06T09:05:01.354Z,5228
2017-08-06T09:06:01.438Z,15328
2017-08-06T09:07:01.460Z,16736
2017-08-06T09:08:01.472Z,18208
2017-08-06T09:09:01.247Z,14656
2017-08-06T09:10:01.596Z,16608
2017-08-06T09:11:01.699Z,16544
2017-08-06T09:12:01.395Z,16032
2017-08-06T09:13:01.778Z,15360
2017-08-06T09:14:01.802Z,16256
2017-08-06T09:15:01.602Z,18112
2017-08-06T09:16:01.897Z,17120
2017-08-06T09:17:01.342Z,16064
2017-08-06T09:18:02.359Z,19136
2017-08-06T09:19:02.364Z,17920
2017-08-06T09:20:02.070Z,16672
2017-08-06T09:21:01.845Z,18176
2017-08-06T09:22:02.507Z,17312
2017-08-06T09:23:03.242Z,15552
2017-08-06T09:24:02.997Z,16864
2017-08-06T09:25:03.808Z,9788
2017-08-06T09:26:03.837Z,7424
2017-08-06T09:27:04.231Z,6700
2017-08-06T09:28:03.357Z,6164
2017-08-06T09:29:04.018Z,7100
2017-08-06T09:30:04.071Z,17280
2017-08-06T09:31:04.121Z,16384
2017-08-06T09:32:04.230Z,16032
2017-08-06T09:33:04.240Z,16128
2017-08-06T09:34:04.421Z,19872
2017-08-06T09:35:04.582Z,20128
2017-08-06T09:36:03.691Z,7828
2017-08-06T09:37:03.740Z,7452
2017-08-06T09:38:04.208Z,6188
2017-08-06T09:39:04.243Z,18272
2017-08-06T09:40:04.111Z,17856
2017-08-06T09:41:04.600Z,7040
2017-08-06T09:42:04.647Z,7168
2017-08-06T09:43:04.386Z,7900
2017-08-06T09:44:04.747Z,7060
2017-08-06T09:45:05.012Z,5856
2017-08-06T09:46:05.128Z,18112
2017-08-06T09:47:05.192Z,18016
2017-08-06T09:48:04.624Z,18880
2017-08-06T09:49:04.940Z,18912
2017-08-06T09:50:05.515Z,17632
2017-08-06T09:51:05.951Z,17824
2017-08-06T09:52:05.778Z,5472
2017-08-06T09:53:05.906Z,5268
2017-08-06T09:54:05.960Z,4840
2017-08-06T09:55:05.915Z,17504
2017-08-06T09:56:05.597Z,16320
2017-08-06T09:57:06.171Z,19488
2017-08-06T09:58:05.365Z,18144
2017-08-06T09:59:06.093Z,18240
2017-08-06T10:00:06.237Z,19712
2017-08-06T10:01:06.701Z,22368
2017-08-06T10:02:07.004Z,10984
2017-08-06T10:03:07.026Z,11100
2017-08-06T10:04:06.575Z,12208
2017-08-06T10:05:07.228Z,10164
2017-08-06T10:06:07.123Z,8200
2017-08-06T10:07:06.929Z,8704
2017-08-06T10:08:06.618Z,6376
2017-08-06T10:09:07.596Z,5128
2017-08-06T10:10:07.661Z,4796
2017-08-06T10:11:07.353Z,5612
2017-08-06T10:12:07.682Z,21696
2017-08-06T10:13:07.427Z,21696
2017-08-06T10:14:08.291Z,21920
2017-08-06T10:15:07.574Z,22880
2017-08-06T10:16:08.229Z,24352
2017-08-06T10:17:07.900Z,17664
2017-08-06T10:18:08.594Z,22720
2017-08-06T10:19:08.330Z,24160
2017-08-06T10:20:08.984Z,23456
2017-08-06T10:21:08.994Z,23456
2017-08-06T10:22:08.491Z,23328
2017-08-06T10:23:08.210Z,24000
2017-08-06T10:24:08.930Z,24544
2017-08-06T10:25:08.531Z,26016
2017-08-06T10:26:09.853Z,25024
2017-08-06T10:27:09.454Z,25728
2017-08-06T10:28:09.177Z,28128
2017-08-06T10:29:08.973Z,30144
2017-08-06T10:30:09.563Z,32096
2017-08-06T10:31:09.471Z,35872
2017-08-06T10:32:09.456Z,38912
2017-08-06T10:33:09.244Z,39872
2017-08-06T10:34:09.306Z,44320
2017-08-06T10:35:09.137Z,44928
2017-08-06T10:36:09.822Z,45920
2017-08-06T10:37:10.219Z,47168
2017-08-06T10:38:10.603Z,47520
2017-08-06T10:39:09.715Z,47136
2017-08-06T10:40:10.701Z,49248
2017-08-06T10:41:10.360Z,51840
2017-08-06T10:42:10.659Z,48768
2017-08-06T10:43:10.483Z,65568
2017-08-06T10:44:10.482Z,65152
2017-08-06T10:45:10.207Z,42944
2017-08-06T10:46:10.901Z,45856
2017-08-06T10:47:11.284Z,7592
2017-08-06T10:48:10.969Z,6740
2017-08-06T10:49:10.790Z,6364
2017-08-06T10:50:11.204Z,5648
2017-08-06T10:51:11.207Z,8256
2017-08-06T10:52:11.991Z,71136
2017-08-06T10:53:11.978Z,71712
2017-08-06T10:54:12.044Z,49728
2017-08-06T10:55:11.820Z,19456
2017-08-06T10:56:12.640Z,9464
2017-08-06T10:57:12.315Z,9168
2017-08-06T10:58:12.388Z,8640
2017-08-06T10:59:13.101Z,7776
2017-08-06T11:00:12.852Z,6852
2017-08-06T11:01:12.957Z,6264
2017-08-06T11:02:12.598Z,6164
2017-08-06T11:03:12.985Z,6368
2017-08-06T11:04:13.951Z,6420
2017-08-06T11:05:14.022Z,6332
2017-08-06T11:06:13.420Z,5808
2017-08-06T11:07:14.164Z,7268
2017-08-06T11:08:14.481Z,6396
2017-08-06T11:09:14.544Z,7732
2017-08-06T11:10:14.632Z,7740
2017-08-06T11:11:14.622Z,7780
2017-08-06T11:12:14.368Z,5556
2017-08-06T11:13:14.724Z,7552
2017-08-06T11:14:14.157Z,6464
2017-08-06T11:15:14.566Z,6384
2017-08-06T11:16:15.224Z,7576
2017-08-06T11:17:14.989Z,5960
2017-08-06T11:18:15.558Z,5236
2017-08-06T11:19:15.347Z,5668
2017-08-06T11:20:15.080Z,6916
2017-08-06T11:21:15.106Z,6904
2017-08-06T11:22:15.446Z,6256
2017-08-06T11:23:14.883Z,5628
2017-08-06T11:24:15.223Z,6016
2017-08-06T11:25:16.250Z,5528
2017-08-06T11:26:15.952Z,6608
2017-08-06T11:27:16.031Z,7628
2017-08-06T11:28:16.379Z,7208
2017-08-06T11:29:15.826Z,6464
2017-08-06T11:30:16.633Z,5968
2017-08-06T11:31:17.008Z,7124
2017-08-06T11:32:17.351Z,6512
2017-08-06T11:33:17.138Z,6772
2017-08-06T11:34:17.463Z,6920
2017-08-06T11:35:17.179Z,5768
2017-08-06T11:36:16.942Z,3652
2017-08-06T11:37:17.650Z,5800
2017-08-06T11:38:16.727Z,4056
2017-08-06T11:39:17.680Z,3612
2017-08-06T11:40:17.481Z,3192
2017-08-06T11:41:17.463Z,4336
2017-08-06T11:42:17.842Z,5024
2017-08-06T11:43:17.548Z,4116
2017-08-06T11:44:17.605Z,4360
2017-08-06T11:45:18.665Z,6264
2017-08-06T11:46:18.700Z,6200
2017-08-06T11:47:18.109Z,5252
2017-08-06T11:48:18.152Z,4872
2017-08-06T11:49:19.114Z,4720
2017-08-06T11:50:18.898Z,4516
2017-08-06T11:51:18.990Z,4544
2017-08-06T11:52:19.947Z,4660
2017-08-06T11:53:19.740Z,4576
2017-08-06T11:54:20.088Z,4792
2017-08-06T11:55:20.456Z,4788
2017-08-06T11:56:20.488Z,4428
2017-08-06T11:57:20.573Z,3988
2017-08-06T11:58:20.607Z,3776
2017-08-06T11:59:20.609Z,3684
2017-08-06T12:00:20.982Z,3736
2017-08-06T12:01:20.835Z,3296
2017-08-06T12:02:20.770Z,3504
2017-08-06T12:03:20.760Z,4684
2017-08-06T12:04:20.518Z,6276
2017-08-06T12:05:20.562Z,5888
2017-08-06T12:06:20.612Z,4704
2017-08-06T12:07:20.766Z,3960
2017-08-06T12:08:21.464Z,3972
2017-08-06T12:09:20.863Z,4100
2017-08-06T12:10:21.528Z,4172
2017-08-06T12:11:21.556Z,4008
2017-08-06T12:12:21.613Z,4140
2017-08-06T12:13:20.705Z,4316
2017-08-06T12:14:21.095Z,4692
2017-08-06T12:15:21.945Z,5276
2017-08-06T12:16:21.535Z,6220
2017-08-06T12:17:21.852Z,6744
2017-08-06T12:18:21.590Z,6908
2017-08-06T12:19:22.287Z,7636
2017-08-06T12:20:22.656Z,7292
2017-08-06T12:21:22.690Z,7044
2017-08-06T12:22:22.688Z,6384
2017-08-06T12:23:22.761Z,6200
2017-08-06T12:24:22.459Z,5760
2017-08-06T12:25:22.825Z,5388
2017-08-06T12:26:22.910Z,4736
2017-08-06T12:27:22.596Z,3952
2017-08-06T12:28:23.324Z,3604
2017-08-06T12:29:23.003Z,3556
2017-08-06T12:30:23.375Z,3416
2017-08-06T12:31:23.418Z,3196
2017-08-06T12:32:24.111Z,3040
2017-08-06T12:33:23.854Z,2924
2017-08-06T12:34:24.553Z,2884
2017-08-06T12:35:24.566Z,2824
2017-08-06T12:36:24.964Z,2812
2017-08-06T12:37:25.284Z,2804
2017-08-06T12:38:25.676Z,2832
2017-08-06T12:39:25.673Z,2908
2017-08-06T12:40:25.129Z,2796
2017-08-06T12:41:25.478Z,2740
2017-08-06T12:42:25.567Z,2756
2017-08-06T12:43:25.943Z,2792
2017-08-06T12:44:25.701Z,2764
2017-08-06T12:45:26.199Z,2792
2017-08-06T12:46:26.549Z,2796
2017-08-06T12:47:26.562Z,2884
2017-08-06T12:48:26.610Z,2868
2017-08-06T12:49:26.335Z,3120
2017-08-06T12:50:26.543Z,3628
2017-08-06T12:51:26.643Z,4112
2017-08-06T12:52:27.622Z,4356
2017-08-06T12:53:27.339Z,4420
2017-08-06T12:54:27.977Z,4336
2017-08-06T12:55:27.859Z,4088
2017-08-06T12:56:28.231Z,3604
2017-08-06T12:57:28.605Z,3328
2017-08-06T12:58:30.208Z,2984
2017-08-06T12:59:28.990Z,2660
2017-08-06T13:00:29.214Z,2464
2017-08-06T13:01:29.257Z,2392
2017-08-06T13:02:29.118Z,2380
2017-08-06T13:03:28.518Z,2464
2017-08-06T13:04:28.884Z,2584
2017-08-06T13:05:28.947Z,2636
2017-08-06T13:06:29.949Z,2712
2017-08-06T13:07:29.360Z,2880
2017-08-06T13:08:30.389Z,2668
2017-08-06T13:09:30.387Z,2452
2017-08-06T13:10:30.481Z,2292
2017-08-06T13:11:30.172Z,2200
2017-08-06T13:12:30.883Z,2108
2017-08-06T13:13:30.898Z,2076
2017-08-06T13:14:30.321Z,2068
2017-08-06T13:15:31.237Z,2068
2017-08-06T13:16:31.333Z,2108
2017-08-06T13:17:31.378Z,2140
2017-08-06T13:18:31.442Z,2144
2017-08-06T13:19:31.743Z,2108
2017-08-06T13:20:31.489Z,2056
2017-08-06T13:21:31.812Z,2048
2017-08-06T13:22:32.208Z,2128
2017-08-06T13:23:31.603Z,2188
2017-08-06T13:24:31.984Z,2240
2017-08-06T13:25:32.331Z,2528
2017-08-06T13:26:32.717Z,2888
2017-08-06T13:27:32.711Z,3004
2017-08-06T13:28:32.769Z,3560
2017-08-06T13:29:32.475Z,3448
2017-08-06T13:30:32.882Z,2992
2017-08-06T13:31:32.882Z,2644
2017-08-06T13:32:32.942Z,2492
2017-08-06T13:33:33.586Z,2352
2017-08-06T13:34:33.341Z,2468
2017-08-06T13:35:33.679Z,2332